Terminal Aerodrome Forecast
Issued by NWS

Home | Current Version | Previous Version | Text Only | Print | Product List | Glossary On
Versions: 1 2 3 4 5 6 7 8 9 10 11 12 13 14 15 16 17 18 19
000
FTUS43 KLSX 021120
TAFUIN
TAF
KUIN 021120Z 0212/0312 22007KT P6SM SCT050 BKN150
     FM021400 22007KT P6SM VCTS SCT050CB BKN150
     FM021800 23013G20KT P6SM FEW040
     FM030000 22008KT P6SM SCT150=

USA.gov is the U.S. government's official web portal to all federal, state and local government web resources and services.